Dolliver, Iowa
Current Conditions -  °F | °C
As of 9:52 PM on Saturday 20 Dec 2014 (Local Time) from KEST Reporting Station
Overcast Overcast  
Wind Chill: 20°   Ceiling: 700
Heat Index: 31°   Visibility: 8mi
Dew Point: 29°   Wind: 16mph
Humidity: 92%   Direction: 180°S
Pressure: 30.02"   Gusts: NA
Location:  43.46°N, 94.63°W
Report Text: KEST 210352Z AUTO 18014KT 8SM OVC007 M01/M02 A3002 RMK AO2 SLP183 T10061017
Loading
Personal Weather Stations






























Interactive Weather Map New forecast layout! Learn more

10-Day Weather Forecast

Advertisements
Track Severe Weather on mobile